Terminal Aerodrome Forecast
Issued by NWS

Home | Current Version | Previous Version | Text Only | Print | Product List | Glossary On
Versions: 1 2 3 4 5 6 7 8 9 10 11 12 13 14 15
000
FTUS45 KFGZ 200000 AAB
TAFGCN
TAF AMD
KGCN 200040Z 2001/2024 VRB06KT P6SM VCSH SCT050 BKN080
      TEMPO 2001/2002 VRB15G25KT 5SM -TSRA BKN050CB
     FM200200 VRB02KT P6SM SCT060
     FM201800 13008KT P6SM SCT045 BKN070
      TEMPO 2019/2023 -TSRA BKN040CB=

USA.gov is the U.S. government's official web portal to all federal, state and local government web resources and services.